Time;durP1;ratioP1;P1;durP2;ratioP2;P2;SDS_P1;SDS_P2;PMS_P1;PMS_P2;Temp;Humidity;BMP_temperature;BMP_pressure;BME280_temperature;BME280_humidity;BME280_pressure;Samples;Min_cycle;Max_cycle;Signal;HPM_P1;HPM_P2
2021/12/29 00:01:35;;;;;;;5.03;1.10;;;;;;;;;;5155489;27;20030;-75
2021/12/29 00:04:03;;;;;;;3.78;1.30;;;;;;;;;;5155262;27;20450;-75
2021/12/29 00:06:30;;;;;;;3.30;0.90;;;;;;;;;;5155323;27;20067;-74
2021/12/29 00:08:59;;;;;;;4.68;1.27;;;;;;;;;;5155298;27;20093;-75
2021/12/29 00:11:26;;;;;;;6.05;1.05;;;;;;;;;;5155282;27;20098;-75
2021/12/29 00:13:54;;;;;;;5.07;1.17;;;;;;;;;;5136401;27;20495;-75
2021/12/29 00:16:21;;;;;;;4.55;1.38;;;;;;;;;;5136334;27;20026;-75
2021/12/29 00:18:48;;;;;;;2.88;0.80;;;;;;;;;;5155345;27;20104;-76
2021/12/29 00:21:15;;;;;;;5.45;0.98;;;;;;;;;;5155383;27;20037;-75
2021/12/29 00:23:42;;;;;;;3.78;1.20;;;;;;;;;;5154991;27;20023;-75
2021/12/29 00:26:11;;;;;;;1.90;0.90;;;;;;;;;;5136358;27;20019;-77
2021/12/29 00:28:38;;;;;;;3.83;0.80;;;;;;;;;;5155224;27;20063;-76
2021/12/29 00:31:05;;;;;;;2.85;1.02;;;;;;;;;;5155042;27;20027;-76
2021/12/29 00:33:32;;;;;;;3.97;0.82;;;;;;;;;;5136553;27;20026;-76
2021/12/29 00:36:00;;;;;;;3.90;1.02;;;;;;;;;;5155086;27;20368;-76
2021/12/29 00:38:27;;;;;;;2.03;0.80;;;;;;;;;;5154977;27;20025;-77
2021/12/29 00:40:54;;;;;;;2.42;0.77;;;;;;;;;;5154977;27;20023;-76
2021/12/29 00:43:21;;;;;;;2.47;0.55;;;;;;;;;;5154909;27;20456;-76
2021/12/29 00:45:50;;;;;;;3.90;0.70;;;;;;;;;;5135966;27;20023;-76
2021/12/29 00:48:18;;;;;;;2.17;0.50;;;;;;;;;;5136364;27;20047;-77
2021/12/29 00:50:46;;;;;;;2.35;0.47;;;;;;;;;;5154683;27;20019;-77
2021/12/29 00:53:14;;;;;;;4.15;0.82;;;;;;;;;;5135973;27;20056;-77
2021/12/29 00:55:41;;;;;;;1.63;0.50;;;;;;;;;;5154783;27;20021;-76
2021/12/29 00:58:08;;;;;;;2.35;0.60;;;;;;;;;;5154829;27;20075;-77
2021/12/29 01:00:37;;;;;;;4.00;0.88;;;;;;;;;;5154127;27;20046;-77
2021/12/29 01:03:06;;;;;;;3.28;0.63;;;;;;;;;;5154712;27;20105;-78
2021/12/29 01:05:33;;;;;;;2.53;0.63;;;;;;;;;;5135716;27;20023;-77
2021/12/29 01:08:00;;;;;;;4.07;0.82;;;;;;;;;;5155248;27;20019;-77
2021/12/29 01:10:27;;;;;;;2.88;0.82;;;;;;;;;;5136398;27;20018;-77
2021/12/29 01:12:58;;;;;;;3.72;0.50;;;;;;;;;;5154612;27;20028;-75
2021/12/29 01:15:31;;;;;;;1.42;0.65;;;;;;;;;;5154690;27;20014;-77
2021/12/29 01:17:59;;;;;;;3.65;1.15;;;;;;;;;;5154647;27;20018;-77
2021/12/29 01:20:26;;;;;;;2.40;0.60;;;;;;;;;;5154527;27;20159;-77
2021/12/29 01:22:54;;;;;;;2.08;0.50;;;;;;;;;;5136070;27;20023;-78
2021/12/29 01:25:24;;;;;;;3.00;0.75;;;;;;;;;;5136016;27;20042;-78
2021/12/29 01:27:51;;;;;;;3.13;0.80;;;;;;;;;;5155659;27;20475;-78
2021/12/29 01:30:18;;;;;;;3.20;0.70;;;;;;;;;;5136170;27;20029;-77
2021/12/29 01:32:46;;;;;;;1.75;0.47;;;;;;;;;;5155348;27;20027;-78
2021/12/29 01:35:13;;;;;;;2.75;0.55;;;;;;;;;;5137213;27;20109;-78
2021/12/29 01:37:40;;;;;;;2.38;0.50;;;;;;;;;;5137534;27;20083;-79
2021/12/29 01:40:11;;;;;;;1.90;0.60;;;;;;;;;;5137258;27;20439;-79
2021/12/29 01:42:38;;;;;;;2.97;0.70;;;;;;;;;;5154978;27;20378;-79
2021/12/29 01:45:06;;;;;;;3.20;0.70;;;;;;;;;;5136399;27;20037;-79
2021/12/29 01:47:33;;;;;;;1.15;0.38;;;;;;;;;;5156649;27;20095;-80
2021/12/29 01:50:01;;;;;;;2.35;0.60;;;;;;;;;;5138310;27;20046;-79
2021/12/29 01:52:34;;;;;;;2.88;1.10;;;;;;;;;;5154598;27;20050;-79
2021/12/29 01:55:01;;;;;;;2.25;0.50;;;;;;;;;;5135786;27;20039;-80
2021/12/29 01:57:28;;;;;;;1.85;0.50;;;;;;;;;;5155249;27;20054;-79
2021/12/29 01:59:55;;;;;;;2.15;0.85;;;;;;;;;;5154558;27;20513;-79
2021/12/29 02:02:22;;;;;;;2.70;0.50;;;;;;;;;;5136952;27;20019;-79
2021/12/29 02:04:50;;;;;;;2.10;0.20;;;;;;;;;;5154146;27;20019;-78
2021/12/29 02:07:17;;;;;;;1.00;0.40;;;;;;;;;;5154402;27;20136;-78
2021/12/29 02:09:44;;;;;;;2.97;0.55;;;;;;;;;;5154467;27;20445;-78
2021/12/29 02:12:11;;;;;;;2.42;0.40;;;;;;;;;;5138425;27;20023;-79
2021/12/29 02:14:39;;;;;;;2.20;0.38;;;;;;;;;;5139513;27;20447;-78
2021/12/29 02:17:06;;;;;;;3.53;0.50;;;;;;;;;;5139329;27;20081;-78
2021/12/29 02:19:33;;;;;;;2.72;0.50;;;;;;;;;;5158806;27;20106;-78
2021/12/29 02:22:13;;;;;;;3.42;0.80;;;;;;;;;;5157941;27;20023;-78
2021/12/29 02:24:43;;;;;;;2.47;0.40;;;;;;;;;;5157582;27;20041;-80
2021/12/29 02:27:11;;;;;;;0.80;0.40;;;;;;;;;;5138777;27;20015;-79
2021/12/29 02:29:41;;;;;;;2.92;0.50;;;;;;;;;;5158067;27;20075;-78
2021/12/29 02:32:09;;;;;;;2.33;0.57;;;;;;;;;;5139100;27;20071;-78
2021/12/29 02:34:36;;;;;;;2.55;0.50;;;;;;;;;;5157856;27;20030;-77
2021/12/29 02:37:04;;;;;;;3.03;0.50;;;;;;;;;;5158279;27;20088;-78
2021/12/29 02:39:33;;;;;;;1.92;0.60;;;;;;;;;;5157670;27;20046;-77
2021/12/29 02:42:04;;;;;;;2.00;0.40;;;;;;;;;;5138853;27;20033;-76
2021/12/29 02:44:38;;;;;;;1.83;0.60;;;;;;;;;;5157030;27;20030;-76
2021/12/29 02:47:05;;;;;;;1.23;0.43;;;;;;;;;;5158095;27;20021;-77
2021/12/29 02:49:33;;;;;;;1.40;0.45;;;;;;;;;;5157972;27;20538;-77
2021/12/29 02:52:00;;;;;;;1.27;0.68;;;;;;;;;;5157174;27;20019;-76
2021/12/29 02:54:27;;;;;;;3.40;0.60;;;;;;;;;;5156959;27;20468;-76
2021/12/29 02:56:54;;;;;;;2.67;0.77;;;;;;;;;;5156989;27;20026;-77
2021/12/29 02:59:23;;;;;;;1.85;0.57;;;;;;;;;;5138074;27;20019;-79
2021/12/29 03:01:51;;;;;;;2.63;0.40;;;;;;;;;;5138308;27;20057;-76
2021/12/29 03:04:18;;;;;;;2.03;0.40;;;;;;;;;;5137686;27;20440;-77
2021/12/29 03:06:45;;;;;;;2.22;0.63;;;;;;;;;;5137940;27;20077;-77
2021/12/29 03:09:13;;;;;;;5.95;0.95;;;;;;;;;;5156670;27;20044;-77
2021/12/29 03:11:41;;;;;;;1.67;0.52;;;;;;;;;;5137851;27;20102;-77
2021/12/29 03:14:08;;;;;;;2.55;0.40;;;;;;;;;;5156591;27;20023;-78
2021/12/29 03:16:36;;;;;;;2.33;0.60;;;;;;;;;;5156464;27;20073;-77
2021/12/29 03:19:04;;;;;;;4.40;0.82;;;;;;;;;;5156432;27;20053;-77
2021/12/29 03:21:32;;;;;;;2.55;0.60;;;;;;;;;;5156518;27;20030;-77
2021/12/29 03:24:00;;;;;;;3.50;0.80;;;;;;;;;;5136979;27;20390;-76
2021/12/29 03:26:27;;;;;;;5.47;0.60;;;;;;;;;;5156461;27;20019;-77
2021/12/29 03:28:57;;;;;;;1.70;0.57;;;;;;;;;;5156401;27;20410;-75
2021/12/29 03:31:25;;;;;;;2.78;0.60;;;;;;;;;;5137356;27;20022;-76
2021/12/29 03:33:53;;;;;;;2.47;0.80;;;;;;;;;;5156081;27;20018;-76
2021/12/29 03:36:20;;;;;;;4.03;0.75;;;;;;;;;;5156234;27;20106;-76
2021/12/29 03:38:48;;;;;;;4.72;0.70;;;;;;;;;;5156047;27;20022;-76
2021/12/29 03:41:16;;;;;;;1.90;0.60;;;;;;;;;;5136994;27;20554;-75
2021/12/29 03:43:44;;;;;;;3.40;0.70;;;;;;;;;;5137014;27;20018;-75
2021/12/29 03:46:11;;;;;;;3.72;0.80;;;;;;;;;;5156007;27;20405;-76
2021/12/29 03:48:39;;;;;;;1.77;0.68;;;;;;;;;;5155968;27;20014;-75
2021/12/29 03:51:07;;;;;;;2.72;0.50;;;;;;;;;;5155822;27;20523;-75
2021/12/29 03:53:35;;;;;;;2.63;0.57;;;;;;;;;;5155630;27;20055;-74
2021/12/29 03:56:06;;;;;;;1.30;0.40;;;;;;;;;;5137114;27;20026;-75
2021/12/29 03:58:32;;;;;;;;;;;;;;;;;;5156245;27;20079;-74
2021/12/29 04:01:01;;;;;;;2.28;0.40;;;;;;;;;;5155558;27;20375;-75
2021/12/29 04:03:28;;;;;;;2.40;0.60;;;;;;;;;;5155224;27;20018;-75
2021/12/29 04:05:55;;;;;;;2.78;0.50;;;;;;;;;;5155351;27;20090;-75
2021/12/29 04:08:23;;;;;;;2.10;0.43;;;;;;;;;;5155384;27;20015;-75
2021/12/29 04:10:50;;;;;;;2.38;0.38;;;;;;;;;;5136744;27;20027;-75
2021/12/29 04:13:17;;;;;;;1.45;0.60;;;;;;;;;;5155482;27;20027;-75
2021/12/29 04:15:45;;;;;;;5.05;0.57;;;;;;;;;;5155189;27;20022;-74
2021/12/29 04:18:15;;;;;;;3.38;0.68;;;;;;;;;;5136370;27;20500;-74
2021/12/29 04:21:01;;;;;;;2.53;0.50;;;;;;;;;;5155253;27;20041;-74
2021/12/29 04:23:33;;;;;;;1.20;0.40;;;;;;;;;;5155144;27;20070;-74
2021/12/29 04:26:01;;;;;;;2.42;0.60;;;;;;;;;;5154979;27;20030;-74
2021/12/29 04:28:29;;;;;;;1.80;0.47;;;;;;;;;;5155200;27;20015;-75
2021/12/29 04:30:57;;;;;;;1.55;0.30;;;;;;;;;;5154986;27;20019;-75
2021/12/29 04:33:25;;;;;;;2.00;0.50;;;;;;;;;;5136124;27;20041;-75
2021/12/29 04:35:52;;;;;;;1.98;0.40;;;;;;;;;;5154169;27;20500;-75
2021/12/29 04:38:21;;;;;;;2.03;0.40;;;;;;;;;;5135830;27;20505;-75
2021/12/29 04:40:50;;;;;;;3.53;0.60;;;;;;;;;;5135749;27;20379;-75
2021/12/29 04:43:18;;;;;;;1.35;0.40;;;;;;;;;;5154474;27;20470;-74
2021/12/29 04:45:46;;;;;;;2.05;0.47;;;;;;;;;;5154486;27;20427;-75
2021/12/29 04:48:14;;;;;;;1.80;0.30;;;;;;;;;;5154856;27;20387;-75
2021/12/29 04:50:49;;;;;;;3.45;0.60;;;;;;;;;;5154495;27;20095;-74
2021/12/29 04:53:17;;;;;;;1.60;0.40;;;;;;;;;;5135740;27;20129;-74
2021/12/29 04:55:49;;;;;;;2.17;0.50;;;;;;;;;;5136202;27;20491;-74
2021/12/29 04:58:18;;;;;;;1.83;0.70;;;;;;;;;;5154287;27;20031;-74
2021/12/29 05:00:46;;;;;;;1.70;0.30;;;;;;;;;;5154459;27;20023;-74
2021/12/29 05:03:14;;;;;;;2.92;0.40;;;;;;;;;;5135786;27;20034;-74
2021/12/29 05:05:54;;;;;;;4.85;0.32;;;;;;;;;;5154372;27;20041;-73
2021/12/29 05:08:29;;;;;;;2.63;0.50;;;;;;;;;;5135677;27;20079;-74
2021/12/29 05:11:00;;;;;;;1.90;0.68;;;;;;;;;;5135702;27;20019;-74
2021/12/29 05:13:28;;;;;;;3.03;0.35;;;;;;;;;;5154375;27;20015;-74
2021/12/29 05:15:56;;;;;;;3.38;0.40;;;;;;;;;;5154366;27;20049;-74
2021/12/29 05:18:24;;;;;;;1.90;0.25;;;;;;;;;;5135747;27;20506;-74
2021/12/29 05:20:51;;;;;;;1.95;0.32;;;;;;;;;;5154442;27;20015;-75
2021/12/29 05:23:19;;;;;;;2.35;0.20;;;;;;;;;;5154223;27;20079;-75
2021/12/29 05:25:47;;;;;;;1.85;0.38;;;;;;;;;;5154232;27;20563;-75
2021/12/29 05:28:14;;;;;;;2.78;0.50;;;;;;;;;;5135561;27;20018;-74
2021/12/29 05:30:41;;;;;;;1.85;0.20;;;;;;;;;;5154279;27;20379;-74
2021/12/29 05:33:09;;;;;;;1.98;0.30;;;;;;;;;;5154326;27;20015;-75
2021/12/29 05:35:36;;;;;;;2.83;0.30;;;;;;;;;;5154290;27;20028;-74
2021/12/29 05:38:03;;;;;;;2.25;0.50;;;;;;;;;;5154307;27;20071;-75
2021/12/29 05:40:31;;;;;;;1.08;0.30;;;;;;;;;;5154180;27;20025;-75
2021/12/29 05:42:58;;;;;;;1.23;0.20;;;;;;;;;;5154140;27;20019;-75
2021/12/29 05:45:27;;;;;;;1.80;0.50;;;;;;;;;;5154506;27;20015;-75
2021/12/29 05:47:55;;;;;;;1.63;0.30;;;;;;;;;;5158219;27;20094;-76
2021/12/29 05:50:24;;;;;;;3.35;0.40;;;;;;;;;;5158129;27;20050;-73
2021/12/29 05:52:52;;;;;;;4.18;0.40;;;;;;;;;;5158068;27;20504;-76
2021/12/29 05:55:19;;;;;;;1.38;0.40;;;;;;;;;;5158077;27;20117;-76
2021/12/29 05:57:47;;;;;;;2.10;0.38;;;;;;;;;;5158057;27;20386;-74
2021/12/29 06:00:17;;;;;;;3.13;0.55;;;;;;;;;;5139191;27;20023;-74
2021/12/29 06:02:44;;;;;;;0.47;0.20;;;;;;;;;;5158073;27;20023;-75
2021/12/29 06:05:11;;;;;;;1.90;0.28;;;;;;;;;;5157780;27;20023;-74
2021/12/29 06:07:39;;;;;;;2.08;0.55;;;;;;;;;;5157848;27;20022;-75
2021/12/29 06:10:08;;;;;;;1.63;0.30;;;;;;;;;;5157755;27;20490;-75
2021/12/29 06:12:35;;;;;;;2.30;0.47;;;;;;;;;;5157702;27;20029;-75
2021/12/29 06:15:02;;;;;;;2.40;0.32;;;;;;;;;;5157752;27;20023;-76
2021/12/29 06:17:30;;;;;;;1.45;0.43;;;;;;;;;;5138860;27;20375;-77
2021/12/29 06:19:57;;;;;;;1.98;0.30;;;;;;;;;;5138732;27;20023;-76
2021/12/29 06:22:25;;;;;;;1.02;0.25;;;;;;;;;;5157697;27;20111;-76
2021/12/29 06:24:52;;;;;;;2.05;0.20;;;;;;;;;;5157457;27;20093;-77
2021/12/29 06:27:21;;;;;;;1.88;0.45;;;;;;;;;;5138783;27;20024;-77
2021/12/29 06:29:48;;;;;;;1.90;0.30;;;;;;;;;;5157449;27;20098;-77
2021/12/29 06:32:15;;;;;;;2.42;0.45;;;;;;;;;;5157682;27;20031;-77
2021/12/29 06:34:43;;;;;;;2.92;0.22;;;;;;;;;;5138588;27;20030;-76
2021/12/29 06:37:12;;;;;;;1.33;0.40;;;;;;;;;;5138657;27;20027;-76
2021/12/29 06:39:40;;;;;;;0.95;0.20;;;;;;;;;;5138766;27;20046;-75
2021/12/29 06:42:07;;;;;;;2.25;0.52;;;;;;;;;;5157039;27;20015;-77
2021/12/29 06:44:34;;;;;;;1.63;0.30;;;;;;;;;;5157256;27;20027;-78
2021/12/29 06:47:02;;;;;;;3.72;0.50;;;;;;;;;;5138770;27;20019;-77
2021/12/29 06:49:29;;;;;;;0.88;0.30;;;;;;;;;;5138701;27;20025;-77
2021/12/29 06:51:56;;;;;;;2.40;0.35;;;;;;;;;;5157281;27;20022;-77
2021/12/29 06:54:23;;;;;;;3.13;0.30;;;;;;;;;;5157010;27;20055;-77
2021/12/29 06:56:50;;;;;;;1.17;0.30;;;;;;;;;;5156881;27;20386;-76
2021/12/29 06:59:17;;;;;;;1.48;0.43;;;;;;;;;;5137458;27;20015;-77
2021/12/29 07:01:44;;;;;;;1.67;0.30;;;;;;;;;;5156964;27;20068;-76
2021/12/29 07:04:12;;;;;;;2.60;0.32;;;;;;;;;;5138454;27;20106;-77
2021/12/29 07:06:39;;;;;;;2.10;0.50;;;;;;;;;;5156903;27;20025;-77
2021/12/29 07:09:06;;;;;;;1.08;0.30;;;;;;;;;;5137773;27;20049;-77
2021/12/29 07:11:36;;;;;;;1.52;0.38;;;;;;;;;;5157224;27;20383;-76
2021/12/29 07:14:04;;;;;;;1.05;0.28;;;;;;;;;;5137829;27;20033;-77
2021/12/29 07:16:32;;;;;;;1.50;0.30;;;;;;;;;;5137870;27;20478;-76
2021/12/29 07:18:59;;;;;;;1.17;0.20;;;;;;;;;;5156781;27;20030;-76
2021/12/29 07:21:27;;;;;;;1.48;0.30;;;;;;;;;;5156565;27;20097;-75
2021/12/29 07:23:54;;;;;;;1.33;0.40;;;;;;;;;;5137856;27;20019;-76
2021/12/29 07:26:22;;;;;;;1.10;0.28;;;;;;;;;;5137591;27;20018;-75
2021/12/29 07:28:49;;;;;;;6.15;0.57;;;;;;;;;;5156559;27;20046;-75
2021/12/29 07:31:16;;;;;;;2.95;0.43;;;;;;;;;;5156687;27;20015;-77
2021/12/29 07:33:43;;;;;;;1.83;0.35;;;;;;;;;;5137510;27;20029;-76
2021/12/29 07:36:11;;;;;;;2.67;0.40;;;;;;;;;;5137707;27;20019;-77
2021/12/29 07:38:39;;;;;;;1.58;0.30;;;;;;;;;;5156298;27;20019;-77
2021/12/29 07:41:06;;;;;;;2.60;0.47;;;;;;;;;;5155987;27;20015;-77
2021/12/29 07:43:35;;;;;;;1.55;0.40;;;;;;;;;;5156011;27;20027;-77
2021/12/29 07:46:03;;;;;;;2.08;0.47;;;;;;;;;;5156100;27;20503;-77
2021/12/29 07:48:31;;;;;;;1.48;0.40;;;;;;;;;;5137229;27;20019;-76
2021/12/29 07:50:59;;;;;;;3.25;0.73;;;;;;;;;;5137030;27;20027;-76
2021/12/29 07:53:26;;;;;;;3.33;0.60;;;;;;;;;;5136894;27;20443;-76
2021/12/29 07:55:53;;;;;;;1.45;0.35;;;;;;;;;;5155739;27;20018;-76
2021/12/29 07:58:20;;;;;;;2.45;0.60;;;;;;;;;;5137031;27;20105;-77
2021/12/29 08:00:48;;;;;;;2.90;0.30;;;;;;;;;;5137223;27;20399;-76
2021/12/29 08:03:15;;;;;;;1.85;0.40;;;;;;;;;;5155683;27;20472;-76
2021/12/29 08:05:43;;;;;;;1.13;0.40;;;;;;;;;;5155770;27;20032;-76
2021/12/29 08:08:11;;;;;;;2.55;0.60;;;;;;;;;;5136856;27;20015;-76
2021/12/29 08:10:38;;;;;;;2.47;0.85;;;;;;;;;;5154525;27;20066;-75
2021/12/29 08:13:06;;;;;;;3.05;0.95;;;;;;;;;;5155603;27;20023;-75
2021/12/29 08:15:34;;;;;;;3.63;0.57;;;;;;;;;;5155453;27;20102;-75
2021/12/29 08:18:02;;;;;;;1.42;0.50;;;;;;;;;;5155438;27;20099;-75
2021/12/29 08:20:31;;;;;;;3.53;0.80;;;;;;;;;;5155520;27;20018;-75
2021/12/29 08:22:58;;;;;;;2.25;0.50;;;;;;;;;;5136772;27;20035;-75
2021/12/29 08:25:25;;;;;;;2.85;0.40;;;;;;;;;;5155107;27;20486;-76
2021/12/29 08:27:52;;;;;;;1.98;0.30;;;;;;;;;;5136216;27;20018;-75
2021/12/29 08:30:19;;;;;;;2.65;1.20;;;;;;;;;;5155151;27;20050;-75
2021/12/29 08:32:46;;;;;;;3.70;0.30;;;;;;;;;;5155146;27;20023;-75
2021/12/29 08:35:14;;;;;;;2.42;0.45;;;;;;;;;;5155200;27;20030;-75
2021/12/29 08:37:41;;;;;;;1.70;0.38;;;;;;;;;;5155095;27;20414;-76
2021/12/29 08:40:10;;;;;;;1.90;0.40;;;;;;;;;;5155111;27;20079;-76
2021/12/29 08:42:38;;;;;;;3.97;0.55;;;;;;;;;;5154867;27;20063;-75
2021/12/29 08:45:10;;;;;;;2.60;0.50;;;;;;;;;;5135899;27;20034;-75
2021/12/29 08:47:37;;;;;;;1.60;0.47;;;;;;;;;;5154704;27;20078;-76
2021/12/29 08:50:06;;;;;;;3.83;0.40;;;;;;;;;;5154951;27;20019;-75
2021/12/29 08:52:35;;;;;;;2.83;0.60;;;;;;;;;;5135726;27;20030;-74
2021/12/29 08:55:03;;;;;;;2.47;0.43;;;;;;;;;;5154681;27;20023;-74
2021/12/29 08:57:31;;;;;;;1.30;0.35;;;;;;;;;;5154737;27;20023;-75
2021/12/29 08:59:58;;;;;;;3.05;0.68;;;;;;;;;;5154588;27;20023;-75
2021/12/29 09:02:26;;;;;;;1.50;0.30;;;;;;;;;;5154495;27;20031;-75
2021/12/29 09:04:53;;;;;;;1.70;0.40;;;;;;;;;;5154476;27;20096;-74
2021/12/29 09:07:20;;;;;;;4.00;0.50;;;;;;;;;;5154407;27;20043;-76
2021/12/29 09:09:47;;;;;;;2.20;0.40;;;;;;;;;;5135722;27;20023;-76
2021/12/29 09:12:14;;;;;;;1.85;0.40;;;;;;;;;;5154365;27;20018;-75
2021/12/29 09:14:44;;;;;;;2.95;0.40;;;;;;;;;;5135688;27;20343;-75
2021/12/29 09:17:11;;;;;;;2.00;0.50;;;;;;;;;;5154571;27;20076;-75
2021/12/29 09:19:41;;;;;;;3.63;0.80;;;;;;;;;;5154422;27;20025;-75
2021/12/29 09:22:09;;;;;;;1.17;0.40;;;;;;;;;;5139065;27;20078;-75
2021/12/29 09:24:36;;;;;;;2.53;0.68;;;;;;;;;;5158531;27;20536;-74
2021/12/29 09:27:03;;;;;;;2.22;0.50;;;;;;;;;;5139881;27;20158;-75
2021/12/29 09:29:33;;;;;;;3.08;0.60;;;;;;;;;;5158569;27;20015;-74
2021/12/29 09:32:01;;;;;;;2.38;0.60;;;;;;;;;;5158566;27;20399;-74
2021/12/29 09:34:28;;;;;;;2.75;0.35;;;;;;;;;;5139478;27;20035;-75
2021/12/29 09:36:56;;;;;;;1.70;0.20;;;;;;;;;;5140141;27;20030;-74
2021/12/29 09:39:24;;;;;;;1.42;0.40;;;;;;;;;;5139305;27;20027;-75
2021/12/29 09:41:52;;;;;;;4.45;0.70;;;;;;;;;;5158470;27;20489;-75
2021/12/29 09:44:20;;;;;;;1.92;0.30;;;;;;;;;;5158434;27;20054;-74
2021/12/29 09:46:52;;;;;;;2.60;0.40;;;;;;;;;;5139557;27;20019;-75
2021/12/29 09:49:19;;;;;;;3.40;0.50;;;;;;;;;;5158359;27;20386;-74
2021/12/29 09:51:46;;;;;;;1.40;0.40;;;;;;;;;;5158340;27;20075;-74
2021/12/29 09:54:14;;;;;;;1.15;0.50;;;;;;;;;;5158231;27;20099;-75
2021/12/29 09:56:41;;;;;;;2.20;0.90;;;;;;;;;;5139286;27;20027;-74
2021/12/29 09:59:08;;;;;;;2.00;0.57;;;;;;;;;;5158115;27;20026;-74
2021/12/29 10:01:35;;;;;;;1.80;0.70;;;;;;;;;;5158072;27;20474;-74
2021/12/29 10:04:03;;;;;;;3.38;0.60;;;;;;;;;;5157916;27;20454;-74
2021/12/29 10:06:30;;;;;;;2.22;0.90;;;;;;;;;;5157931;27;20019;-73
2021/12/29 10:08:57;;;;;;;4.07;0.60;;;;;;;;;;5158201;27;20023;-73
2021/12/29 10:11:36;;;;;;;2.15;0.40;;;;;;;;;;5139037;27;20023;-73
2021/12/29 10:14:07;;;;;;;2.72;0.77;;;;;;;;;;5157939;27;20360;-73
2021/12/29 10:16:34;;;;;;;2.80;0.55;;;;;;;;;;5157808;27;20020;-73
2021/12/29 10:19:07;;;;;;;2.00;0.60;;;;;;;;;;5139162;27;20098;-73
2021/12/29 10:21:35;;;;;;;4.22;1.08;;;;;;;;;;5138967;27;20037;-72
2021/12/29 10:24:03;;;;;;;3.63;1.05;;;;;;;;;;5139041;27;20053;-74
2021/12/29 10:26:31;;;;;;;2.40;0.60;;;;;;;;;;5157601;27;20067;-74
2021/12/29 10:29:02;;;;;;;3.42;0.70;;;;;;;;;;5157605;27;20022;-73
2021/12/29 10:31:28;;;;;;;;;;;;;;;;;;5158031;27;20019;-74
2021/12/29 10:34:00;;;;;;;2.30;1.10;;;;;;;;;;5156376;27;19907;-73
2021/12/29 10:36:29;;;;;;;2.65;0.88;;;;;;;;;;5138518;27;20554;-73
2021/12/29 10:39:00;;;;;;;3.25;0.77;;;;;;;;;;5138543;27;20026;-73
2021/12/29 10:41:27;;;;;;;1.95;0.68;;;;;;;;;;5157353;27;20014;-74
2021/12/29 10:43:57;;;;;;;3.30;0.82;;;;;;;;;;5157211;27;20048;-73
2021/12/29 10:46:26;;;;;;;3.10;0.80;;;;;;;;;;5157189;27;20368;-73
2021/12/29 10:48:54;;;;;;;2.10;0.70;;;;;;;;;;5156980;27;20073;-73
2021/12/29 10:51:27;;;;;;;3.13;0.98;;;;;;;;;;5157208;27;20441;-74
2021/12/29 10:53:54;;;;;;;3.33;0.90;;;;;;;;;;5156963;27;20047;-73
2021/12/29 10:56:23;;;;;;;4.57;1.70;;;;;;;;;;5138110;27;20395;-74
2021/12/29 10:58:53;;;;;;;3.35;1.55;;;;;;;;;;5157021;27;20439;-73
2021/12/29 11:01:21;;;;;;;4.53;1.10;;;;;;;;;;5156832;27;20050;-73
2021/12/29 11:03:49;;;;;;;3.35;0.80;;;;;;;;;;5138146;27;20385;-73
2021/12/29 11:06:18;;;;;;;3.13;1.20;;;;;;;;;;5156735;27;20068;-74
2021/12/29 11:08:52;;;;;;;2.60;1.30;;;;;;;;;;5156676;27;20023;-74
2021/12/29 11:11:21;;;;;;;1.75;0.80;;;;;;;;;;5156629;27;20075;-72
2021/12/29 11:13:48;;;;;;;2.47;1.00;;;;;;;;;;5156585;27;20018;-73
2021/12/29 11:16:19;;;;;;;3.08;1.20;;;;;;;;;;5156571;27;20022;-74
2021/12/29 11:18:50;;;;;;;4.65;0.98;;;;;;;;;;5156760;27;20026;-73
2021/12/29 11:21:32;;;;;;;4.43;0.80;;;;;;;;;;5138001;27;20023;-75
2021/12/29 11:24:12;;;;;;;3.47;0.90;;;;;;;;;;5156439;27;20053;-75
2021/12/29 11:26:39;;;;;;;3.50;1.00;;;;;;;;;;5137647;27;20042;-74
2021/12/29 11:29:11;;;;;;;6.00;1.00;;;;;;;;;;5156261;27;20049;-73
2021/12/29 11:31:40;;;;;;;2.55;0.90;;;;;;;;;;5156326;27;20023;-74
2021/12/29 11:34:13;;;;;;;2.75;0.88;;;;;;;;;;5137667;27;20019;-74
2021/12/29 11:36:41;;;;;;;3.63;1.33;;;;;;;;;;5156230;27;20072;-74
2021/12/29 11:39:09;;;;;;;4.13;1.40;;;;;;;;;;5156193;27;20049;-74
2021/12/29 11:41:36;;;;;;;3.22;1.13;;;;;;;;;;5137048;27;20022;-74
2021/12/29 11:44:03;;;;;;;2.53;0.93;;;;;;;;;;5136935;27;20023;-74
2021/12/29 11:46:30;;;;;;;2.13;0.90;;;;;;;;;;5137182;27;20019;-74
2021/12/29 11:49:02;;;;;;;2.08;1.02;;;;;;;;;;5137104;27;20026;-75
2021/12/29 11:51:45;;;;;;;2.35;1.15;;;;;;;;;;5137345;27;20031;-74
2021/12/29 11:54:18;;;;;;;4.32;0.90;;;;;;;;;;5155780;27;20047;-74
2021/12/29 11:56:46;;;;;;;2.28;0.85;;;;;;;;;;5155899;27;20047;-74
2021/12/29 11:59:15;;;;;;;3.40;1.13;;;;;;;;;;5136713;27;20118;-74
2021/12/29 12:01:42;;;;;;;2.28;0.85;;;;;;;;;;5136749;27;20019;-74
2021/12/29 12:04:12;;;;;;;3.08;0.90;;;;;;;;;;5155621;27;20025;-74
2021/12/29 12:06:44;;;;;;;3.08;0.75;;;;;;;;;;5155658;27;20019;-74
2021/12/29 12:09:14;;;;;;;2.38;0.80;;;;;;;;;;5155584;27;20018;-74
2021/12/29 12:11:50;;;;;;;3.72;0.80;;;;;;;;;;5155507;27;20015;-74
2021/12/29 12:14:19;;;;;;;2.97;0.75;;;;;;;;;;5136929;27;20034;-74
2021/12/29 12:16:57;;;;;;;4.45;0.70;;;;;;;;;;5155546;27;20022;-74
2021/12/29 12:19:25;;;;;;;1.63;0.63;;;;;;;;;;5136860;27;20022;-74
2021/12/29 12:22:03;;;;;;;2.83;0.80;;;;;;;;;;5155288;27;20027;-74
2021/12/29 12:24:30;;;;;;;3.03;0.80;;;;;;;;;;5136310;27;20102;-74
2021/12/29 12:27:02;;;;;;;3.80;0.85;;;;;;;;;;5155232;27;20017;-74
2021/12/29 12:29:30;;;;;;;4.18;1.08;;;;;;;;;;5155123;27;20059;-74
2021/12/29 12:32:15;;;;;;;2.80;0.77;;;;;;;;;;5155068;27;20023;-74
2021/12/29 12:34:53;;;;;;;3.35;0.90;;;;;;;;;;5155087;27;20151;-74
2021/12/29 12:37:40;;;;;;;2.85;0.80;;;;;;;;;;5155046;27;20022;-73
2021/12/29 12:40:12;;;;;;;1.55;0.70;;;;;;;;;;5154934;27;20029;-74
2021/12/29 12:42:40;;;;;;;2.60;0.70;;;;;;;;;;5136187;27;20023;-74
2021/12/29 12:45:18;;;;;;;3.85;0.90;;;;;;;;;;5154825;27;20562;-74
2021/12/29 12:47:46;;;;;;;3.92;0.80;;;;;;;;;;5136408;27;20023;-74
2021/12/29 12:50:23;;;;;;;3.00;0.70;;;;;;;;;;5135963;27;20070;-74
2021/12/29 12:52:52;;;;;;;4.40;1.13;;;;;;;;;;5154791;27;20019;-73
2021/12/29 12:55:19;;;;;;;4.38;1.25;;;;;;;;;;5154218;27;20019;-73
2021/12/29 12:57:48;;;;;;;3.42;0.52;;;;;;;;;;5154826;27;20023;-73
2021/12/29 13:00:15;;;;;;;3.13;0.80;;;;;;;;;;5154840;27;20509;-73
2021/12/29 13:02:45;;;;;;;4.68;0.73;;;;;;;;;;5154743;27;20022;-74
2021/12/29 13:05:14;;;;;;;2.83;0.70;;;;;;;;;;5154522;27;20042;-73
2021/12/29 13:07:42;;;;;;;1.10;0.68;;;;;;;;;;5154632;27;20046;-74
2021/12/29 13:10:12;;;;;;;3.15;1.23;;;;;;;;;;5154606;27;20023;-74
2021/12/29 13:12:40;;;;;;;4.07;0.80;;;;;;;;;;5135771;27;20479;-74
2021/12/29 13:15:12;;;;;;;4.03;0.85;;;;;;;;;;5154592;27;20041;-73
2021/12/29 13:17:45;;;;;;;2.55;0.90;;;;;;;;;;5154920;27;20027;-73
2021/12/29 13:20:13;;;;;;;3.50;1.08;;;;;;;;;;5154487;27;20025;-74
2021/12/29 13:22:41;;;;;;;3.85;0.73;;;;;;;;;;5154457;27;20543;-74
2021/12/29 13:25:08;;;;;;;2.35;0.68;;;;;;;;;;5135606;27;20032;-73
2021/12/29 13:27:36;;;;;;;2.88;0.60;;;;;;;;;;5135666;27;20487;-73
2021/12/29 13:30:04;;;;;;;3.30;0.70;;;;;;;;;;5154436;27;20021;-72
2021/12/29 13:32:32;;;;;;;2.58;0.60;;;;;;;;;;5154546;27;20506;-73
2021/12/29 13:35:00;;;;;;;2.25;0.75;;;;;;;;;;5154295;27;20019;-73
2021/12/29 13:37:29;;;;;;;2.78;0.90;;;;;;;;;;5154401;27;20019;-73
2021/12/29 13:39:56;;;;;;;3.60;1.20;;;;;;;;;;5154329;27;20022;-73
2021/12/29 13:42:23;;;;;;;0.80;0.50;;;;;;;;;;5135489;27;20106;-73
2021/12/29 13:44:53;;;;;;;2.65;0.82;;;;;;;;;;5154187;27;20387;-73
2021/12/29 13:47:25;;;;;;;0.88;0.45;;;;;;;;;;5154366;27;20018;-73
2021/12/29 13:49:52;;;;;;;3.17;0.90;;;;;;;;;;5135109;27;20065;-73
2021/12/29 13:52:19;;;;;;;1.75;0.57;;;;;;;;;;5135537;27;20490;-73
2021/12/29 13:54:46;;;;;;;5.15;0.70;;;;;;;;;;5154031;27;20123;-73
2021/12/29 13:57:13;;;;;;;2.50;0.70;;;;;;;;;;5154135;27;20026;-73
2021/12/29 13:59:40;;;;;;;1.77;0.88;;;;;;;;;;5135537;27;20570;-73
2021/12/29 14:02:08;;;;;;;2.45;0.60;;;;;;;;;;5153942;27;20019;-74
2021/12/29 14:04:45;;;;;;;3.30;0.82;;;;;;;;;;5153888;27;20053;-74
2021/12/29 14:07:16;;;;;;;1.75;0.60;;;;;;;;;;5155773;27;20019;-74
2021/12/29 14:09:44;;;;;;;2.33;1.02;;;;;;;;;;5139450;27;20030;-73
2021/12/29 14:12:16;;;;;;;1.27;0.50;;;;;;;;;;5157694;27;20014;-73
2021/12/29 14:14:44;;;;;;;2.13;0.70;;;;;;;;;;5138897;27;20106;-74
2021/12/29 14:17:22;;;;;;;1.85;0.63;;;;;;;;;;5157826;27;20333;-73
2021/12/29 14:19:50;;;;;;;3.05;0.70;;;;;;;;;;5157937;27;20022;-73
2021/12/29 14:22:24;;;;;;;3.70;0.60;;;;;;;;;;5157740;27;20026;-74
2021/12/29 14:24:51;;;;;;;2.28;0.65;;;;;;;;;;5138794;27;20099;-73
2021/12/29 14:27:27;;;;;;;3.83;0.73;;;;;;;;;;5157543;27;20467;-75
2021/12/29 14:29:55;;;;;;;3.13;0.63;;;;;;;;;;5157502;27;20018;-74
2021/12/29 14:32:23;;;;;;;2.20;0.50;;;;;;;;;;5138590;27;20345;-75
2021/12/29 14:34:53;;;;;;;3.05;0.52;;;;;;;;;;5157594;27;20386;-75
2021/12/29 14:37:21;;;;;;;3.47;0.50;;;;;;;;;;5138557;27;20041;-74
2021/12/29 14:39:48;;;;;;;2.70;0.93;;;;;;;;;;5157303;27;20257;-74
2021/12/29 14:42:23;;;;;;;1.90;0.68;;;;;;;;;;5157398;27;20033;-74
2021/12/29 14:44:50;;;;;;;2.30;0.70;;;;;;;;;;5157256;27;20046;-73
2021/12/29 14:47:18;;;;;;;1.58;0.60;;;;;;;;;;5157326;27;20090;-74
2021/12/29 14:49:46;;;;;;;2.17;0.73;;;;;;;;;;5157235;27;20498;-73
2021/12/29 14:52:15;;;;;;;3.03;0.60;;;;;;;;;;5157096;27;20451;-73